Time;durP1;ratioP1;P1;durP2;ratioP2;P2;SDS_P1;SDS_P2;PMS_P1;PMS_P2;Temp;Humidity;BMP_temperature;BMP_pressure;BME280_temperature;BME280_humidity;BME280_pressure;Samples;Min_cycle;Max_cycle;Signal;HPM_P1;HPM_P2
2022/10/19 00:02:39;;;;;;;5.32;2.00;;;15.10;61.50;;;13.89;61.37;102141.41;12253083;19;20023;-87
2022/10/19 00:06:41;;;;;;;2.47;1.90;;;15.20;61.80;;;13.67;61.42;102124.00;12254499;19;20018;-87
2022/10/19 00:10:46;;;;;;;3.40;2.22;;;15.40;61.90;;;13.83;61.57;102150.41;12255860;19;20018;-86
2022/10/19 00:14:58;;;;;;;;;;;;;;;;;;;;;
2022/10/19 00:19:15;;;;;;;3.55;1.83;;;15.40;62.20;;;13.83;61.53;102152.19;12252418;19;20528;-87
2022/10/19 00:23:21;;;;;;;2.80;2.60;;;15.40;62.10;;;13.83;61.75;102142.53;12249684;19;20099;-86
2022/10/19 00:27:34;;;;;;;4.25;1.92;;;15.30;62.20;;;13.87;61.59;102148.50;12246410;19;20122;-86
2022/10/19 00:31:42;;;;;;;1.93;1.80;;;15.10;62.10;;;13.68;61.65;102122.22;12250686;19;20015;-86
2022/10/19 00:35:46;;;;;;;3.60;1.80;;;15.30;62.00;;;13.75;61.70;102143.81;12246040;19;20035;-87
2022/10/19 00:39:51;;;;;;;4.70;1.65;;;15.30;62.20;;;14.06;61.68;102201.88;12247457;19;20026;-86
2022/10/19 00:44:03;;;;;;;5.95;1.80;;;15.10;62.20;;;13.88;61.79;102174.69;12244573;19;20014;-86
2022/10/19 00:48:50;;;;;;;3.03;1.65;;;15.10;61.90;;;13.70;61.65;102158.00;12247130;19;20014;-86
2022/10/19 00:52:53;;;;;;;2.38;1.98;;;15.10;61.90;;;14.19;61.72;102214.44;12251444;19;20070;-86
2022/10/19 00:56:58;;;;;;;2.70;1.73;;;14.90;61.90;;;13.67;61.81;102129.25;12245951;19;20026;-87
2022/10/19 01:01:04;;;;;;;3.63;1.40;;;15.10;62.20;;;13.61;61.69;102124.28;12250491;19;20014;-86
2022/10/19 01:05:15;;;;;;;2.97;1.23;;;15.40;62.20;;;13.80;61.79;102145.31;12243542;19;20022;-86
2022/10/19 01:09:16;;;;;;;2.65;2.00;;;15.10;62.00;;;13.80;61.68;102149.69;12248369;19;20354;-86
2022/10/19 01:13:57;;;;;;;5.20;1.63;;;15.20;62.30;;;14.17;61.90;102211.88;12241786;19;20032;-86
2022/10/19 01:18:31;;;;;;;;;;;;;;;;;;;;;
2022/10/19 01:23:27;;;;;;;4.50;1.40;;;15.30;62.30;;;14.16;61.89;102203.16;12245762;19;20035;-86
2022/10/19 01:28:54;;;;;;;1.98;1.35;;;15.10;61.90;;;14.12;61.99;102205.97;12245919;19;20031;-86
2022/10/19 01:33:46;;;;;;;1.50;1.02;;;15.10;61.90;;;14.07;61.90;102186.94;12244332;19;20437;-86
2022/10/19 01:38:41;;;;;;;3.38;1.15;;;15.10;61.80;;;13.38;61.97;102082.47;12242200;19;20038;-86
2022/10/19 01:43:10;;;;;;;3.42;1.20;;;15.00;61.80;;;13.67;61.86;102128.41;12242715;19;20014;-86
2022/10/19 01:58:09;;;;;;;2.85;1.20;;;15.00;61.80;;;13.58;62.08;102110.44;12248152;19;20021;-86
2022/10/19 02:02:15;;;;;;;2.45;1.58;;;15.20;62.10;;;13.71;61.89;102116.81;12245478;19;20018;-86
2022/10/19 02:07:03;;;;;;;1.65;1.10;;;15.20;62.20;;;14.07;62.00;102181.69;12246920;19;20053;-86
2022/10/19 02:20:47;;;;;;;2.22;0.98;;;15.00;61.60;;;13.54;61.87;102080.88;12241086;19;20018;-86
2022/10/19 04:11:57;;;;;;;1.33;0.88;;;14.90;62.00;;;13.50;62.19;102150.16;12248813;19;20014;-85
2022/10/19 04:27:08;;;;;;;1.83;0.70;;;15.00;62.20;;;13.71;62.08;102177.22;12246666;19;20022;-85
2022/10/19 04:31:13;;;;;;;1.20;0.65;;;15.10;62.20;;;13.61;61.97;102158.41;12249481;19;20010;-85
2022/10/19 04:36:01;;;;;;;2.42;0.60;;;15.20;62.10;;;13.25;62.04;102100.50;12245696;19;20036;-85
2022/10/19 04:40:18;;;;;;;0.70;0.52;;;15.00;61.50;;;13.56;61.95;102149.91;12253355;19;20372;-85
2022/10/19 04:48:45;;;;;;;0.82;0.60;;;15.00;61.30;;;13.57;62.24;102172.59;12253716;19;19922;-85
2022/10/19 04:53:06;;;;;;;;;;;;;;;;;;;;;
2022/10/19 05:18:48;;;;;;;0.90;0.80;;;15.00;61.60;;;13.88;62.08;102232.47;12241100;19;20018;-85
2022/10/19 05:22:54;;;;;;;1.10;0.63;;;15.10;61.50;;;13.57;62.16;102167.34;12243946;19;20002;-85
2022/10/19 05:26:56;;;;;;;0.50;0.50;;;15.10;61.30;;;13.45;62.04;102153.00;12257164;19;20014;-85
2022/10/19 05:31:32;;;;;;;0.60;0.60;;;15.00;61.00;;;14.00;62.15;102265.19;12253148;19;20010;-85
2022/10/19 05:42:06;;;;;;;1.40;0.40;;;15.10;61.00;;;13.36;62.08;102148.13;12242666;19;20452;-85
2022/10/19 05:52:02;;;;;;;0.70;0.47;;;14.90;60.70;;;13.98;62.06;102272.28;12243226;19;20497;-84
2022/10/19 06:01:21;;;;;;;1.00;0.75;;;15.10;60.80;;;13.73;62.14;102225.25;12243069;19;20018;-85
2022/10/19 06:05:26;;;;;;;3.90;0.60;;;14.90;60.70;;;13.58;62.04;102205.78;12245402;19;20011;-84
2022/10/19 06:09:34;;;;;;;1.90;0.55;;;15.00;61.00;;;13.59;62.09;102215.38;12247884;19;20043;-84
2022/10/19 06:13:37;;;;;;;1.73;0.90;;;15.00;61.10;;;13.86;62.13;102255.31;12242099;19;20048;-87
2022/10/19 06:17:39;;;;;;;1.17;0.60;;;15.10;61.00;;;13.87;62.05;102253.53;12243777;19;20035;-87
2022/10/19 06:21:44;;;;;;;1.05;0.60;;;15.10;61.30;;;13.76;62.08;102250.53;12245113;19;20078;-87
2022/10/19 06:25:46;;;;;;;2.90;0.73;;;15.00;61.20;;;13.50;62.13;102202.63;12244565;19;20019;-86
2022/10/19 06:29:48;;;;;;;0.95;0.60;;;15.20;61.40;;;13.97;62.01;102275.00;12246553;19;20015;-84
2022/10/19 06:33:49;;;;;;;0.88;0.60;;;15.20;61.30;;;13.76;62.16;102240.88;12245915;19;20026;-87
2022/10/19 06:37:51;;;;;;;0.55;0.50;;;15.10;61.30;;;14.01;62.14;102280.03;12242488;19;20045;-88
2022/10/19 06:41:53;;;;;;;1.65;0.52;;;15.10;61.60;;;13.73;62.11;102239.22;12245445;19;20022;-87
2022/10/19 06:45:55;;;;;;;2.67;0.68;;;15.10;61.50;;;14.07;62.15;102287.66;12246782;19;20799;-87
2022/10/19 06:49:56;;;;;;;0.85;0.60;;;15.00;61.40;;;13.98;62.18;102272.28;12247773;19;20112;-86
2022/10/19 06:53:58;;;;;;;1.25;0.50;;;15.10;61.40;;;14.13;62.16;102291.78;12248999;19;20459;-88
2022/10/19 06:58:00;;;;;;;1.05;0.60;;;15.30;61.60;;;14.13;62.10;102290.00;12244833;19;20363;-87
2022/10/19 07:02:02;;;;;;;1.25;0.60;;;15.10;61.20;;;14.19;62.19;102296.75;12244587;19;20366;-84
2022/10/19 07:06:07;;;;;;;1.75;0.90;;;15.20;61.40;;;14.17;62.22;102296.78;12247961;19;20043;-84
2022/10/19 07:10:09;;;;;;;;;;;15.20;61.10;;;14.13;62.22;102302.28;12261745;19;20026;-84
2022/10/19 07:14:10;;;;;;;1.50;0.65;;;15.20;61.30;;;14.20;62.14;102300.22;12256837;19;20006;-84
2022/10/19 07:18:12;;;;;;;0.90;0.70;;;15.20;61.50;;;14.22;62.18;102301.00;12265818;19;20015;-83
2022/10/19 07:22:13;;;;;;;0.95;0.50;;;15.30;61.20;;;14.32;62.19;102323.31;12265346;19;20034;-84
2022/10/19 07:26:22;;;;;;;2.30;0.60;;;15.20;61.10;;;13.99;62.11;102274.00;12272806;19;20370;-83
2022/10/19 07:30:29;;;;;;;2.78;0.68;;;15.30;61.30;;;14.32;62.09;102318.91;12269244;19;20453;-83
2022/10/19 07:34:30;;;;;;;3.28;0.82;;;15.40;61.50;;;14.42;62.24;102337.75;12267904;19;20032;-84
2022/10/19 07:38:34;;;;;;;2.40;1.00;;;15.30;61.10;;;14.45;62.29;102335.00;12273377;19;20014;-84
2022/10/19 07:42:36;;;;;;;1.00;0.63;;;15.40;61.10;;;14.46;62.11;102331.44;12257457;19;20011;-84
2022/10/19 07:46:38;;;;;;;2.42;0.80;;;15.40;61.00;;;14.42;62.19;102321.13;12261854;19;20076;-83
2022/10/19 07:50:40;;;;;;;3.83;0.63;;;15.70;61.50;;;14.49;62.26;102341.78;12269532;19;20014;-83
2022/10/19 07:54:42;;;;;;;1.38;0.80;;;15.50;61.30;;;14.40;62.16;102323.81;12274058;19;20050;-84
2022/10/19 07:58:44;;;;;;;2.03;0.60;;;15.50;61.20;;;14.57;62.25;102349.38;12270142;19;20357;-84
2022/10/19 08:02:46;;;;;;;1.55;0.80;;;15.50;61.30;;;14.59;62.17;102358.88;12261377;19;20014;-82
2022/10/19 08:06:48;;;;;;;1.25;0.60;;;15.60;61.60;;;14.53;62.31;102343.41;12260860;19;20023;-84
2022/10/19 08:10:50;;;;;;;0.80;0.60;;;15.60;61.50;;;14.55;62.24;102336.28;12260428;19;20026;-82
2022/10/19 08:14:52;;;;;;;1.60;0.60;;;15.70;61.50;;;14.68;62.22;102347.09;12260340;19;20039;-83
2022/10/19 08:19:13;;;;;;;0.82;0.50;;;15.70;61.00;;;14.71;62.14;102351.34;12256546;19;20018;-84
2022/10/19 08:23:14;;;;;;;0.60;0.50;;;15.70;60.90;;;14.75;62.28;102358.19;12257631;19;20346;-82
2022/10/19 08:27:25;;;;;;;2.38;0.88;;;15.80;60.80;;;14.68;61.96;102344.47;12255259;19;20013;-84
2022/10/19 08:31:28;;;;;;;1.17;0.60;;;16.00;60.80;;;14.80;62.11;102358.84;12249587;19;20018;-82
2022/10/19 08:35:30;;;;;;;1.35;0.50;;;16.00;61.10;;;14.86;62.12;102363.78;12254066;19;20007;-82
2022/10/19 08:39:31;;;;;;;1.13;0.73;;;15.90;60.60;;;14.95;62.23;102373.88;12257099;19;20022;-83
2022/10/19 08:43:37;;;;;;;1.67;0.55;;;15.90;60.20;;;14.91;62.19;102374.13;12252191;19;20014;-83
2022/10/19 08:48:14;;;;;;;1.67;0.80;;;15.90;60.50;;;14.78;62.00;102360.69;12248438;19;20014;-83
2022/10/19 08:52:26;;;;;;;1.23;0.50;;;16.00;60.00;;;14.89;62.05;102384.69;12252230;19;20009;-83
2022/10/19 08:56:35;;;;;;;0.52;0.50;;;16.00;60.50;;;14.89;62.08;102394.38;12250826;19;20010;-83
2022/10/19 09:00:59;;;;;;;0.40;0.40;;;15.90;60.70;;;14.64;62.02;102344.69;12253533;19;20066;-83
2022/10/19 09:05:15;;;;;;;0.75;0.68;;;15.90;61.30;;;14.79;62.04;102367.63;12249611;19;20021;-83
2022/10/19 09:09:17;;;;;;;;;;;15.90;61.30;;;14.77;62.28;102378.25;12254186;19;20085;-82
2022/10/19 09:13:39;;;;;;;0.50;0.50;;;16.00;61.30;;;14.80;62.28;102372.84;12251574;19;19935;-83
2022/10/19 09:17:40;;;;;;;0.45;0.45;;;15.90;62.00;;;14.85;62.19;102384.91;12248436;19;20010;-82
2022/10/19 09:21:50;;;;;;;3.25;0.80;;;15.80;61.90;;;14.90;62.13;102390.81;12255363;19;20022;-82
2022/10/19 09:25:52;;;;;;;1.60;0.80;;;15.90;62.20;;;14.95;62.28;102400.19;12251248;19;20018;-83
2022/10/19 09:29:57;;;;;;;0.85;0.80;;;15.90;62.30;;;14.95;62.29;102402.81;12256643;19;20018;-82
2022/10/19 09:34:21;;;;;;;2.85;1.38;;;16.00;63.10;;;15.03;62.13;102402.47;12256017;19;20014;-82
2022/10/19 09:38:27;;;;;;;1.20;0.90;;;16.00;62.40;;;15.13;62.34;102402.88;12252100;19;20014;-83
2022/10/19 09:42:35;;;;;;;0.77;0.60;;;16.00;62.00;;;15.05;62.32;102383.03;12252362;19;20014;-83
2022/10/19 09:47:00;;;;;;;1.55;0.65;;;16.10;62.50;;;15.20;62.57;102402.53;12250976;19;20015;-82
2022/10/19 09:51:11;;;;;;;0.60;0.60;;;16.20;62.80;;;15.34;62.52;102399.22;12251673;19;20015;-84
2022/10/19 09:55:13;;;;;;;1.15;0.70;;;16.30;62.10;;;15.57;62.62;102407.78;12249654;19;20022;-85
2022/10/19 09:59:22;;;;;;;2.17;0.70;;;16.50;62.10;;;15.64;62.44;102401.28;12252326;19;20031;-87
2022/10/19 10:03:40;;;;;;;1.27;0.65;;;16.70;61.20;;;15.70;62.32;102396.59;12248264;19;20330;-84
2022/10/19 10:07:43;;;;;;;2.25;0.50;;;16.80;59.20;;;15.84;62.22;102416.13;12249359;19;20014;-84
2022/10/19 10:11:49;;;;;;;1.38;0.60;;;16.90;58.90;;;15.81;62.02;102403.09;12248314;19;20369;-85
2022/10/19 10:16:02;;;;;;;0.73;0.43;;;17.10;58.10;;;15.68;61.62;102382.63;12247688;19;20010;-83
2022/10/19 10:20:22;;;;;;;0.68;0.50;;;17.00;57.50;;;15.82;61.82;102400.38;12248257;19;20027;-83
2022/10/19 10:24:30;;;;;;;0.50;0.50;;;17.00;57.80;;;15.94;61.87;102409.47;12246953;19;20018;-85
2022/10/19 10:28:32;;;;;;;0.45;0.40;;;17.00;57.60;;;16.01;61.69;102410.84;12249655;19;20022;-83
2022/10/19 10:32:40;;;;;;;0.57;0.50;;;17.00;56.90;;;16.04;61.46;102415.97;12252074;19;20078;-86
2022/10/19 10:36:43;;;;;;;1.35;0.70;;;17.10;56.50;;;16.06;61.20;102395.63;12247630;19;20039;-83
2022/10/19 10:41:01;;;;;;;0.63;0.55;;;17.20;57.00;;;16.08;61.15;102403.47;12253606;19;20028;-85
2022/10/19 10:45:15;;;;;;;0.50;0.40;;;17.40;56.60;;;16.06;61.24;102381.63;12262284;19;20022;-84
2022/10/19 10:49:23;;;;;;;2.97;0.70;;;17.30;56.50;;;16.07;60.97;102368.38;12261082;19;20014;-84
2022/10/19 10:53:42;;;;;;;0.75;0.43;;;17.40;56.60;;;16.29;61.02;102386.53;12250009;19;20031;-86
2022/10/19 10:57:50;;;;;;;0.93;0.40;;;17.40;56.80;;;16.46;60.90;102403.25;12253397;19;20014;-84
2022/10/19 11:02:16;;;;;;;0.50;0.47;;;17.50;56.30;;;16.49;60.84;102387.28;12260253;19;20085;-84
2022/10/19 11:06:21;;;;;;;0.82;0.80;;;17.60;56.70;;;16.68;61.14;102406.44;12258902;19;20007;-85
2022/10/19 11:10:28;;;;;;;3.00;0.75;;;17.90;56.40;;;16.75;60.69;102410.47;12260678;19;20079;-84
2022/10/19 11:14:53;;;;;;;1.05;0.68;;;17.90;55.30;;;16.63;60.59;102390.00;12236613;19;20079;-84
2022/10/19 11:19:32;;;;;;;0.65;0.43;;;18.00;55.30;;;16.74;60.05;102407.88;12265582;19;20027;-84
2022/10/19 11:24:04;;;;;;;0.40;0.40;;;17.90;54.50;;;16.72;60.09;102413.28;12259733;19;20010;-83
2022/10/19 11:28:54;;;;;;;0.88;0.32;;;17.80;55.20;;;16.65;60.27;102411.03;12258642;19;20073;-84
2022/10/19 11:33:47;;;;;;;1.95;0.50;;;17.80;55.20;;;16.60;60.07;102400.72;12277204;19;20011;-84
2022/10/19 11:38:15;;;;;;;0.85;0.35;;;17.70;55.50;;;16.56;59.84;102396.56;12261049;19;20373;-86
2022/10/19 11:43:03;;;;;;;0.38;0.30;;;17.60;55.20;;;16.57;59.80;102395.63;12257674;19;20022;-85
2022/10/19 11:47:59;;;;;;;0.40;0.40;;;17.60;55.30;;;16.49;59.68;102374.09;12260681;19;20018;-85
2022/10/19 11:52:14;;;;;;;0.75;0.50;;;17.60;55.20;;;16.59;59.81;102385.84;12256917;19;20038;-84
2022/10/19 11:56:29;;;;;;;0.68;0.40;;;17.60;55.10;;;16.61;59.49;102386.63;12258974;19;20010;-84
2022/10/19 12:00:42;;;;;;;0.50;0.45;;;17.60;54.50;;;16.54;59.55;102367.63;12262463;19;20472;-83
2022/10/19 12:05:18;;;;;;;0.45;0.40;;;17.70;55.00;;;16.60;59.47;102374.34;12260504;19;20376;-84
2022/10/19 12:09:42;;;;;;;1.30;0.50;;;17.70;54.70;;;16.63;59.46;102379.47;12258149;19;20013;-85
2022/10/19 12:13:52;;;;;;;1.15;0.45;;;17.70;54.90;;;16.51;59.52;102351.13;12259793;19;20022;-86
2022/10/19 12:18:01;;;;;;;0.52;0.30;;;17.70;55.00;;;16.58;59.34;102355.13;12255534;19;20014;-86
2022/10/19 12:22:06;;;;;;;0.73;0.40;;;17.90;54.80;;;16.71;59.29;102368.50;12257760;19;20011;-87
2022/10/19 12:26:13;;;;;;;1.75;0.50;;;17.80;54.80;;;16.56;59.22;102341.19;12257198;19;20010;-85
2022/10/19 12:30:23;;;;;;;4.45;0.68;;;17.80;55.00;;;16.80;58.99;102384.72;12261383;19;20042;-85
2022/10/19 12:34:49;;;;;;;0.43;0.40;;;17.90;54.30;;;16.82;59.19;102381.97;12256408;19;20019;-85
2022/10/19 12:39:16;;;;;;;0.30;0.30;;;17.80;54.70;;;16.84;58.82;102376.63;12257767;19;20015;-85
2022/10/19 12:43:42;;;;;;;0.40;0.40;;;17.80;54.80;;;16.83;58.88;102361.75;12260297;19;20040;-84
2022/10/19 12:48:11;;;;;;;1.58;0.60;;;17.90;54.30;;;16.90;58.62;102373.63;12256398;19;20094;-84
2022/10/19 12:52:33;;;;;;;0.40;0.40;;;17.90;54.80;;;16.87;58.73;102368.53;12258688;19;20011;-84
2022/10/19 12:56:52;;;;;;;1.38;0.40;;;17.90;54.60;;;16.86;58.64;102372.97;12256562;19;20086;-86
2022/10/19 13:01:06;;;;;;;0.47;0.45;;;17.90;54.70;;;16.82;58.42;102355.59;12257820;19;20018;-84
2022/10/19 13:05:19;;;;;;;0.57;0.40;;;17.90;55.00;;;16.74;58.53;102340.19;12248822;19;20081;-86
2022/10/19 13:09:42;;;;;;;1.25;0.40;;;17.90;54.50;;;16.79;58.54;102361.88;12254658;19;20050;-86
2022/10/19 13:14:30;;;;;;;0.50;0.40;;;18.00;54.20;;;16.82;58.47;102360.88;12254449;19;20494;-87
2022/10/19 13:18:58;;;;;;;0.30;0.30;;;17.90;54.40;;;16.85;58.24;102367.75;12257431;19;20015;-85
2022/10/19 13:22:59;;;;;;;0.40;0.38;;;17.80;54.20;;;16.87;58.37;102360.63;12259813;19;20014;-87
2022/10/19 13:27:03;;;;;;;1.45;0.55;;;17.90;54.20;;;16.87;58.32;102358.81;12254708;19;20026;-85
2022/10/19 13:31:23;;;;;;;0.70;0.70;;;17.80;53.50;;;16.84;57.94;102350.25;12256548;19;20013;-84
2022/10/19 13:35:35;;;;;;;1.58;0.60;;;17.80;54.10;;;16.86;58.05;102351.00;12253563;19;20010;-84
2022/10/19 13:39:38;;;;;;;2.22;0.70;;;17.80;54.30;;;16.80;58.07;102333.75;12259613;19;20066;-85
2022/10/19 13:44:10;;;;;;;0.45;0.45;;;17.80;54.10;;;16.85;57.83;102344.88;12250897;19;20063;-85
2022/10/19 13:48:27;;;;;;;0.30;0.30;;;17.80;53.80;;;16.86;57.82;102335.19;12254617;19;20039;-84
2022/10/19 13:52:50;;;;;;;0.63;0.50;;;17.80;54.30;;;16.88;57.70;102344.72;12252190;19;20488;-85
2022/10/19 13:57:18;;;;;;;1.35;0.50;;;17.90;54.20;;;16.92;57.63;102337.47;12252009;19;20035;-85
2022/10/19 14:01:51;;;;;;;0.60;0.60;;;17.90;54.00;;;16.91;57.85;102333.13;12252786;19;20018;-86
2022/10/19 14:06:22;;;;;;;1.75;0.90;;;17.90;53.60;;;16.89;57.82;102335.00;12255211;19;20428;-85
2022/10/19 14:10:25;;;;;;;0.50;0.50;;;17.90;53.60;;;16.78;57.74;102320.63;12248845;19;20536;-85
2022/10/19 14:14:27;;;;;;;3.65;0.65;;;17.90;53.70;;;16.91;57.82;102328.69;12247206;19;20019;-86
2022/10/19 14:18:36;;;;;;;2.47;0.50;;;17.90;53.70;;;16.96;57.50;102339.00;12247534;19;20011;-86
2022/10/19 14:22:39;;;;;;;1.00;0.50;;;17.90;53.90;;;16.98;57.47;102330.03;12248158;19;20014;-86
2022/10/19 14:26:45;;;;;;;1.67;0.55;;;17.90;53.90;;;16.93;57.52;102324.19;12249049;19;20021;-85
2022/10/19 14:31:09;;;;;;;0.40;0.40;;;18.00;53.60;;;16.72;57.20;102288.44;12253032;19;20029;-84
2022/10/19 14:35:26;;;;;;;0.75;0.47;;;17.90;53.30;;;16.59;57.27;102269.78;12247998;19;20018;-85
2022/10/19 14:39:32;;;;;;;0.30;0.30;;;17.80;53.50;;;16.45;57.19;102251.25;12254020;19;20014;-88
2022/10/19 14:43:34;;;;;;;0.57;0.35;;;17.90;53.30;;;16.96;57.07;102337.22;12257155;19;20025;-86
2022/10/19 14:47:49;;;;;;;0.95;0.50;;;17.90;53.40;;;16.56;57.09;102248.88;12254378;19;20021;-86
2022/10/19 14:52:01;;;;;;;1.00;0.80;;;17.80;53.60;;;16.90;57.22;102320.84;12251830;19;20020;-85
2022/10/19 14:56:11;;;;;;;2.03;0.68;;;17.80;53.90;;;16.58;57.20;102270.75;12255208;19;20427;-85
2022/10/19 15:00:19;;;;;;;1.02;0.60;;;17.90;53.80;;;16.64;57.22;102274.81;12251641;19;20071;-87
2022/10/19 15:04:32;;;;;;;0.85;0.50;;;17.80;54.20;;;16.48;57.07;102257.22;12247526;19;20011;-84
2022/10/19 15:08:47;;;;;;;0.30;0.30;;;17.80;54.40;;;16.79;57.17;102303.00;12254671;19;20023;-84
2022/10/19 15:12:55;;;;;;;1.30;0.50;;;17.80;54.50;;;16.74;57.30;102295.31;12256857;19;20007;-84
2022/10/19 15:17:01;;;;;;;0.93;0.70;;;17.80;54.80;;;16.49;57.32;102258.06;12250088;19;20282;-86
2022/10/19 15:21:14;;;;;;;2.05;0.68;;;17.80;55.00;;;16.58;57.36;102279.50;12251852;19;20025;-86
2022/10/19 15:25:27;;;;;;;0.52;0.50;;;17.80;55.20;;;16.86;57.07;102316.72;12254671;19;20022;-84
2022/10/19 15:29:29;;;;;;;0.85;0.70;;;17.80;54.20;;;16.79;57.01;102298.56;12269021;19;20018;-83
2022/10/19 15:33:40;;;;;;;1.75;0.70;;;17.80;54.40;;;16.83;57.07;102319.53;12265030;19;20029;-84
2022/10/19 15:37:44;;;;;;;2.53;0.63;;;17.80;54.90;;;16.67;57.24;102296.59;12258201;19;20086;-84
2022/10/19 15:41:46;;;;;;;5.38;0.60;;;17.70;54.70;;;16.74;57.18;102316.44;12263022;19;20006;-84
2022/10/19 15:46:18;;;;;;;2.78;0.52;;;17.70;54.40;;;16.54;56.88;102298.22;12262910;19;20014;-84
2022/10/19 15:50:36;;;;;;;2.70;0.63;;;17.60;54.50;;;16.56;56.85;102307.75;12259838;19;20018;-84
2022/10/19 15:54:37;;;;;;;4.45;0.98;;;17.60;54.40;;;16.56;56.90;102325.34;12261252;19;20014;-85
2022/10/19 15:58:39;;;;;;;3.03;0.55;;;17.50;54.40;;;16.51;57.04;102327.38;12262422;19;20018;-84
2022/10/19 16:02:40;;;;;;;0.43;0.43;;;17.50;54.50;;;16.42;56.96;102325.22;12260227;19;20043;-84
2022/10/19 16:06:44;;;;;;;3.63;0.77;;;17.40;54.70;;;16.35;57.11;102322.09;12258754;19;20018;-84
2022/10/19 16:10:46;;;;;;;10.82;1.20;;;17.30;54.50;;;16.32;56.96;102335.44;12261109;19;20013;-83
2022/10/19 16:14:48;;;;;;;2.08;0.98;;;17.20;54.50;;;16.24;56.89;102337.63;12263446;19;20388;-84
2022/10/19 16:18:51;;;;;;;2.00;1.20;;;17.10;54.40;;;16.08;56.84;102322.63;12260459;19;20126;-84
2022/10/19 16:22:52;;;;;;;2.00;1.02;;;17.10;54.50;;;16.07;56.83;102331.47;12259344;19;20504;-86
2022/10/19 16:26:54;;;;;;;0.60;0.50;;;17.00;54.40;;;15.91;56.78;102322.69;12256778;19;20015;-84
2022/10/19 16:30:56;;;;;;;3.15;0.80;;;16.90;54.50;;;15.95;56.79;102353.19;12260558;19;20346;-85
2022/10/19 16:34:57;;;;;;;1.30;0.80;;;16.80;54.70;;;15.64;56.82;102320.50;12252498;19;20021;-84
2022/10/19 16:38:59;;;;;;;1.35;0.80;;;16.70;54.50;;;15.60;56.85;102334.72;12254327;19;20038;-84
2022/10/19 16:43:01;;;;;;;2.90;0.95;;;16.60;54.40;;;15.65;56.66;102358.22;12255276;19;20019;-84
2022/10/19 16:47:04;;;;;;;1.98;0.93;;;16.50;54.40;;;15.39;56.69;102335.81;12252942;19;20022;-84
2022/10/19 16:51:05;;;;;;;2.42;0.80;;;16.40;54.50;;;15.46;56.74;102364.38;12257120;19;20142;-85
2022/10/19 16:55:07;;;;;;;2.10;0.70;;;16.50;54.70;;;15.31;56.58;102364.28;12257547;19;20034;-84
2022/10/19 16:59:13;;;;;;;2.65;0.63;;;16.20;54.70;;;15.20;56.74;102356.91;12261232;19;20106;-84
2022/10/19 17:03:14;;;;;;;0.98;0.90;;;16.10;54.70;;;15.18;56.75;102364.06;12251880;19;20023;-84
2022/10/19 17:07:16;;;;;;;1.20;0.88;;;16.00;55.20;;;15.09;56.71;102377.63;12246941;19;20059;-84
2022/10/19 17:25:12;;;;;;;3.78;1.23;;;15.60;55.10;;;14.74;56.80;102382.75;12169012;19;20035;-83
2022/10/19 17:29:13;;;;;;;1.33;1.20;;;15.70;55.20;;;14.42;56.81;102340.38;12242694;19;20010;-84
2022/10/19 17:33:15;;;;;;;1.25;1.15;;;15.50;55.10;;;14.58;56.72;102394.00;12219192;19;20053;-85
2022/10/19 17:37:17;;;;;;;1.52;1.27;;;15.40;55.10;;;14.45;56.87;102387.56;12243137;19;20393;-85
2022/10/19 17:41:19;;;;;;;1.27;1.17;;;15.20;55.10;;;14.41;56.78;102396.50;12255095;19;20479;-85
2022/10/19 17:45:20;;;;;;;1.35;1.23;;;15.20;55.30;;;14.33;56.75;102391.56;12243641;19;20017;-84
2022/10/19 17:49:22;;;;;;;1.95;1.33;;;15.10;55.40;;;14.23;56.97;102392.03;12249963;19;20018;-84
2022/10/19 17:53:24;;;;;;;2.92;1.25;;;15.30;55.60;;;14.16;56.92;102387.06;12251004;19;20026;-85
2022/10/19 17:57:26;;;;;;;1.33;1.27;;;15.00;55.40;;;14.19;56.80;102401.84;12253292;19;20034;-85
2022/10/19 18:01:29;;;;;;;2.33;1.70;;;15.00;55.40;;;14.06;56.83;102395.41;12257141;19;20015;-84
2022/10/19 18:05:31;;;;;;;2.42;2.22;;;15.00;55.20;;;14.03;56.83;102413.94;12251353;19;20011;-84
2022/10/19 18:09:32;;;;;;;2.80;2.60;;;14.80;55.20;;;13.81;57.01;102385.94;12261744;19;20013;-85
2022/10/19 18:13:35;;;;;;;3.97;3.47;;;14.70;55.30;;;13.52;56.94;102344.31;12255111;19;20014;-84
2022/10/19 18:17:37;;;;;;;6.80;3.63;;;14.60;55.40;;;13.82;56.99;102413.06;12254885;19;20460;-85
2022/10/19 18:21:42;;;;;;;4.45;4.05;;;14.50;55.30;;;13.61;56.81;102399.91;12246610;19;20011;-85
2022/10/19 18:25:44;;;;;;;6.97;4.30;;;14.80;55.30;;;13.53;56.91;102394.13;12259678;19;20003;-85
2022/10/19 18:29:45;;;;;;;5.93;4.13;;;14.60;55.20;;;13.55;56.98;102400.13;12258445;19;20025;-84
2022/10/19 18:33:53;;;;;;;6.45;3.65;;;14.30;55.10;;;13.45;57.05;102407.56;12253019;19;20014;-85
2022/10/19 18:37:55;;;;;;;4.43;3.70;;;14.30;55.20;;;13.24;56.97;102384.75;12251942;19;20014;-85
2022/10/19 18:41:56;;;;;;;5.15;3.38;;;14.10;55.10;;;13.20;56.79;102402.38;12252946;19;20011;-84
2022/10/19 18:45:59;;;;;;;5.22;2.78;;;14.20;55.00;;;12.95;57.00;102389.38;12254962;19;20015;-85
2022/10/19 18:50:01;;;;;;;3.80;3.20;;;14.00;54.90;;;13.02;56.79;102413.59;12254898;19;20106;-84
2022/10/19 18:54:03;;;;;;;3.13;2.38;;;13.80;54.80;;;12.74;56.75;102391.03;12250556;19;20015;-84
2022/10/19 18:58:05;;;;;;;2.75;2.45;;;13.70;55.00;;;12.82;56.90;102416.97;12254421;19;20014;-85
2022/10/19 19:02:11;;;;;;;2.58;2.25;;;13.60;55.30;;;12.40;56.93;102355.59;12256174;19;20019;-84
2022/10/19 19:06:20;;;;;;;3.00;2.60;;;13.50;55.40;;;12.62;56.86;102401.97;12263897;19;20042;-85
2022/10/19 19:10:23;;;;;;;2.55;2.35;;;13.50;55.40;;;12.66;56.96;102414.03;12264395;19;20021;-84
2022/10/19 19:14:25;;;;;;;2.60;2.40;;;13.70;55.40;;;12.56;56.98;102413.56;12261718;19;20019;-84
2022/10/19 19:18:26;;;;;;;2.65;2.45;;;13.40;55.30;;;12.42;57.02;102392.22;12265990;19;20011;-85
2022/10/19 19:22:28;;;;;;;2.63;2.20;;;13.50;55.40;;;12.39;57.15;102400.19;12263590;19;20052;-84
2022/10/19 19:26:36;;;;;;;2.75;2.55;;;13.20;55.40;;;12.33;57.09;102411.75;12259399;19;20170;-84
2022/10/19 19:30:43;;;;;;;5.07;2.88;;;13.20;55.50;;;12.32;57.14;102409.19;12263202;19;20023;-85
2022/10/19 19:34:45;;;;;;;3.55;3.25;;;13.30;55.60;;;12.29;57.12;102420.63;12263982;19;20015;-84
2022/10/19 19:38:52;;;;;;;3.33;3.03;;;13.10;55.40;;;12.20;57.13;102413.06;12263699;19;20468;-84
2022/10/19 19:42:54;;;;;;;3.60;3.25;;;13.00;55.30;;;12.09;57.05;102402.97;12261467;19;20029;-84
2022/10/19 19:46:57;;;;;;;4.15;3.10;;;13.00;55.30;;;12.02;56.98;102400.66;12260923;19;20017;-84
2022/10/19 19:50:59;;;;;;;5.30;3.45;;;12.90;55.20;;;12.03;57.02;102412.81;12261030;19;20017;-84
2022/10/19 19:55:02;;;;;;;5.55;3.90;;;12.80;55.30;;;11.86;57.05;102402.91;12262547;19;20019;-84
2022/10/19 19:59:03;;;;;;;6.30;3.92;;;13.00;55.40;;;11.55;57.17;102351.56;12263735;19;20324;-84
2022/10/19 20:03:05;;;;;;;4.72;4.03;;;12.70;55.30;;;11.81;57.23;102403.03;12258304;19;20099;-84
2022/10/19 20:07:07;;;;;;;4.55;4.10;;;12.60;55.10;;;11.66;57.03;102400.91;12255571;19;20086;-84
2022/10/19 20:11:11;;;;;;;3.05;2.75;;;12.60;54.90;;;11.57;56.79;102401.22;12264605;19;20014;-84
2022/10/19 20:15:15;;;;;;;4.47;3.27;;;12.50;54.90;;;11.38;57.02;102390.50;12256842;19;20021;-85
2022/10/19 20:19:17;;;;;;;3.47;3.17;;;12.40;55.00;;;11.47;57.01;102419.81;12262448;19;20014;-84
2022/10/19 20:23:18;;;;;;;3.05;2.75;;;12.30;55.10;;;11.42;56.83;102416.53;12259814;19;20018;-84
2022/10/19 20:27:20;;;;;;;2.70;2.50;;;12.50;55.40;;;11.30;57.35;102412.50;12261210;19;20006;-84
2022/10/19 20:31:22;;;;;;;2.72;2.53;;;12.20;55.30;;;11.30;57.14;102420.34;12266175;19;20464;-84
2022/10/19 20:35:25;;;;;;;3.78;2.67;;;12.20;55.10;;;11.10;56.93;102403.56;12266869;19;20011;-84